createdAt,value
2023-04-22T00:01:02.261Z,6.78
2023-04-22T00:07:13.537Z,3.10
2023-04-22T00:10:26.922Z,2.95
2023-04-22T00:13:31.748Z,2.83
2023-04-22T00:16:36.545Z,2.95
2023-04-22T00:19:41.777Z,2.43
2023-04-22T00:22:46.415Z,2.80
2023-04-22T00:25:50.617Z,2.90
2023-04-22T00:28:55.133Z,3.10
2023-04-22T00:31:59.756Z,2.90
2023-04-22T00:35:04.260Z,3.40
2023-04-22T00:38:09.198Z,4.05
2023-04-22T00:41:14.207Z,2.37
2023-04-22T00:44:19.726Z,2.83
2023-04-22T00:47:27.586Z,3.67
2023-04-22T00:50:32.120Z,2.70
2023-04-22T00:53:37.018Z,3.30
2023-04-22T00:56:41.898Z,2.92
2023-04-22T00:59:46.490Z,2.80
2023-04-22T01:02:50.888Z,3.03
2023-04-22T01:05:55.484Z,3.08
2023-04-22T01:09:00.702Z,3.25
2023-04-22T01:12:05.384Z,2.65
2023-04-22T01:15:10.506Z,4.13
2023-04-22T01:18:15.528Z,4.45
2023-04-22T01:21:20.492Z,2.50
2023-04-22T01:24:24.580Z,2.90
2023-04-22T01:27:29.618Z,2.90
2023-04-22T01:30:34.719Z,3.10
2023-04-22T01:33:40.119Z,2.70
2023-04-22T01:36:45.959Z,2.70
2023-04-22T01:39:51.615Z,3.28
2023-04-22T01:42:56.265Z,3.25
2023-04-22T01:46:03.468Z,3.10
2023-04-22T01:49:08.484Z,3.13
2023-04-22T01:52:12.652Z,2.50
2023-04-22T01:55:17.363Z,2.30
2023-04-22T01:58:21.873Z,2.50
2023-04-22T02:01:27.086Z,2.55
2023-04-22T02:04:31.593Z,2.70
2023-04-22T02:07:37.309Z,2.35
2023-04-22T02:13:46.315Z,2.50
2023-04-22T02:16:52.654Z,2.10
2023-04-22T02:23:01.526Z,2.17
2023-04-22T02:26:06.751Z,3.35
2023-04-22T02:29:12.048Z,2.63
2023-04-22T02:32:18.256Z,2.58
2023-04-22T02:35:23.051Z,2.97
2023-04-22T02:41:32.220Z,3.30
2023-04-22T02:44:36.738Z,2.20
2023-04-22T02:47:41.267Z,1.80
2023-04-22T02:50:45.852Z,1.90
2023-04-22T02:53:50.563Z,2.90
2023-04-22T02:56:55.130Z,5.80
2023-04-22T02:59:59.731Z,5.68
2023-04-22T03:03:04.783Z,2.53
2023-04-22T03:06:11.112Z,3.40
2023-04-22T03:09:15.424Z,2.33
2023-04-22T03:12:19.942Z,5.22
2023-04-22T03:15:23.996Z,2.58
2023-04-22T03:18:28.305Z,6.55
2023-04-22T03:21:33.687Z,6.23
2023-04-22T03:27:46.214Z,3.30
2023-04-22T03:30:50.890Z,2.10
2023-04-22T03:33:55.724Z,2.38
2023-04-22T03:37:06.532Z,2.90
2023-04-22T03:40:13.561Z,2.70
2023-04-22T03:43:18.967Z,3.00
2023-04-22T03:46:33.553Z,3.33
2023-04-22T03:49:58.498Z,4.25
2023-04-22T03:53:02.969Z,3.00
2023-04-22T03:56:07.149Z,4.60
2023-04-22T03:59:15.629Z,10.18
2023-04-22T04:02:20.373Z,2.22
2023-04-22T04:05:25.329Z,2.50
2023-04-22T04:08:30.312Z,3.80
2023-04-22T04:11:37.016Z,3.95
2023-04-22T04:14:42.001Z,4.47
2023-04-22T04:17:49.248Z,3.88
2023-04-22T04:20:57.262Z,3.47
2023-04-22T04:24:04.962Z,4.35
2023-04-22T04:27:13.426Z,4.43
2023-04-22T04:30:26.453Z,4.45
2023-04-22T04:33:33.668Z,5.38
2023-04-22T04:36:40.705Z,4.88
2023-04-22T04:39:52.088Z,4.47
2023-04-22T04:43:00.007Z,3.70
2023-04-22T04:46:10.529Z,4.75
2023-04-22T04:49:15.870Z,5.25
2023-04-22T04:52:30.065Z,5.43
2023-04-22T04:55:35.558Z,5.38
2023-04-22T04:58:44.878Z,6.30
2023-04-22T05:02:04.453Z,4.80
2023-04-22T05:05:13.524Z,4.60
2023-04-22T05:08:20.440Z,4.90
2023-04-22T05:11:27.490Z,5.75
2023-04-22T05:14:33.256Z,4.50
2023-04-22T05:17:37.370Z,7.07
2023-04-22T05:20:41.897Z,4.82
2023-04-22T05:23:47.739Z,3.22
2023-04-22T05:26:53.581Z,3.35
2023-04-22T05:29:58.701Z,3.53
2023-04-22T05:33:11.145Z,3.38
2023-04-22T05:36:17.544Z,3.35
2023-04-22T05:39:24.417Z,3.70
2023-04-22T05:42:29.242Z,3.60
2023-04-22T05:45:33.854Z,3.78
2023-04-22T05:48:41.457Z,4.70
2023-04-22T05:51:55.499Z,4.88
2023-04-22T05:55:04.714Z,5.63
2023-04-22T05:58:09.690Z,4.68
2023-04-22T06:01:26.085Z,3.78
2023-04-22T06:04:43.810Z,3.10
2023-04-22T06:07:48.674Z,6.35
2023-04-22T06:10:53.236Z,3.42
2023-04-22T06:17:03.503Z,3.72
2023-04-22T06:20:08.428Z,4.43
2023-04-22T06:23:12.763Z,4.43
2023-04-22T06:26:17.403Z,5.03
2023-04-22T06:29:24.809Z,4.85
2023-04-22T06:32:30.691Z,4.47
2023-04-22T06:35:35.342Z,5.80
2023-04-22T06:38:39.918Z,4.80
2023-04-22T06:42:16.432Z,4.32
2023-04-22T06:45:46.581Z,6.40
2023-04-22T06:49:09.582Z,6.00
2023-04-22T06:52:39.597Z,5.60
2023-04-22T06:55:44.610Z,5.43
2023-04-22T06:58:49.192Z,8.13
2023-04-22T07:01:53.861Z,8.53
2023-04-22T07:04:58.622Z,7.17
2023-04-22T07:08:04.395Z,5.22
2023-04-22T07:14:34.892Z,4.93
2023-04-22T07:17:39.506Z,4.95
2023-04-22T07:20:43.990Z,5.60
2023-04-22T07:23:48.532Z,5.50
2023-04-22T07:26:53.029Z,6.68
2023-04-22T07:30:00.541Z,4.68
2023-04-22T07:33:05.878Z,4.50
2023-04-22T07:36:10.539Z,5.82
2023-04-22T07:39:15.173Z,6.40
2023-04-22T07:42:19.847Z,7.15
2023-04-22T07:45:24.409Z,6.77
2023-04-22T07:48:28.758Z,5.88
2023-04-22T07:51:33.230Z,7.38
2023-04-22T07:54:37.768Z,6.85
2023-04-22T07:57:42.437Z,7.22
2023-04-22T08:00:47.065Z,7.00
2023-04-22T08:03:52.085Z,5.95
2023-04-22T08:06:58.190Z,5.50
2023-04-22T08:10:02.738Z,5.03
2023-04-22T08:13:07.527Z,4.78
2023-04-22T08:16:12.023Z,5.60
2023-04-22T08:19:16.552Z,6.32
2023-04-22T08:22:21.028Z,7.13
2023-04-22T08:25:25.590Z,6.93
2023-04-22T08:28:30.416Z,7.28
2023-04-22T08:31:35.906Z,6.65
2023-04-22T08:34:40.909Z,7.75
2023-04-22T08:37:45.636Z,10.15
2023-04-22T08:40:51.139Z,9.98
2023-04-22T08:43:55.418Z,9.52
2023-04-22T08:47:02.901Z,10.13
2023-04-22T08:50:10.526Z,9.13
2023-04-22T08:53:15.514Z,10.75
2023-04-22T08:56:20.247Z,11.70
2023-04-22T08:59:24.766Z,10.95
2023-04-22T09:02:30.568Z,10.82
2023-04-22T09:05:37.668Z,10.00
2023-04-22T09:08:41.776Z,10.73
2023-04-22T09:11:46.055Z,9.95
2023-04-22T09:14:50.768Z,11.93
2023-04-22T09:17:57.606Z,9.90
2023-04-22T09:21:02.161Z,8.98
2023-04-22T09:24:10.799Z,8.40
2023-04-22T09:27:17.873Z,8.73
2023-04-22T09:30:40.297Z,10.48
2023-04-22T09:33:50.605Z,11.80
2023-04-22T09:36:55.717Z,10.77
2023-04-22T09:40:00.566Z,14.63
2023-04-22T09:43:07.689Z,16.27
2023-04-22T09:46:12.982Z,15.20
2023-04-22T09:49:19.525Z,15.57
2023-04-22T09:52:25.991Z,16.38
2023-04-22T09:55:34.666Z,15.43
2023-04-22T09:58:44.324Z,18.67
2023-04-22T10:01:49.108Z,17.63
2023-04-22T10:04:53.586Z,18.85
2023-04-22T10:07:58.609Z,17.93
2023-04-22T10:11:03.238Z,16.80
2023-04-22T10:14:07.743Z,26.38
2023-04-22T10:17:14.615Z,20.25
2023-04-22T10:20:21.928Z,23.80
2023-04-22T10:23:26.785Z,26.85
2023-04-22T10:26:51.154Z,20.03
2023-04-22T10:29:58.520Z,22.02
2023-04-22T10:33:33.730Z,22.73
2023-04-22T10:36:59.727Z,22.92
2023-04-22T10:40:13.084Z,22.00
2023-04-22T10:43:22.461Z,26.10
2023-04-22T10:46:38.197Z,24.70
2023-04-22T10:49:45.362Z,24.38
2023-04-22T10:52:52.083Z,27.48
2023-04-22T10:55:57.599Z,25.70
2023-04-22T10:59:16.464Z,34.67
2023-04-22T11:02:22.063Z,23.33
2023-04-22T11:05:28.718Z,23.40
2023-04-22T11:08:33.163Z,23.42
2023-04-22T11:11:37.820Z,23.70
2023-04-22T11:17:49.609Z,24.63
2023-04-22T11:20:55.209Z,22.05
2023-04-22T11:24:06.977Z,21.42
2023-04-22T11:27:12.197Z,23.08
2023-04-22T11:30:17.233Z,22.80
2023-04-22T11:33:22.158Z,22.08
2023-04-22T11:36:26.416Z,22.20
2023-04-22T11:39:46.578Z,16.80
2023-04-22T11:43:03.023Z,12.38
2023-04-22T11:46:09.681Z,7.30
2023-04-22T11:49:19.052Z,48.65
2023-04-22T11:52:23.622Z,17.45
2023-04-22T11:55:35.527Z,9.05
2023-04-22T11:58:42.628Z,6.22
2023-04-22T12:01:48.768Z,7.25
2023-04-22T12:04:53.238Z,6.15
2023-04-22T12:11:05.872Z,5.10
2023-04-22T12:14:10.175Z,6.57
2023-04-22T12:17:15.774Z,6.18
2023-04-22T12:20:21.450Z,5.30
2023-04-22T12:23:26.879Z,6.13
2023-04-22T12:26:31.545Z,5.30
2023-04-22T12:29:36.558Z,5.80
2023-04-22T12:32:40.860Z,5.63
2023-04-22T12:35:47.896Z,6.38
2023-04-22T12:38:52.451Z,6.93
2023-04-22T12:41:58.627Z,6.22
2023-04-22T12:45:04.072Z,7.40
2023-04-22T12:48:11.786Z,6.82
2023-04-22T12:51:16.276Z,6.25
2023-04-22T12:54:21.849Z,16.23
2023-04-22T12:57:27.069Z,6.00
2023-04-22T13:00:32.110Z,5.45
2023-04-22T13:03:36.946Z,6.32
2023-04-22T13:06:44.203Z,5.10
2023-04-22T13:09:49.244Z,6.30
2023-04-22T13:12:56.706Z,6.75
2023-04-22T13:16:04.527Z,6.03
2023-04-22T13:19:08.822Z,6.32
2023-04-22T13:22:12.782Z,8.32
2023-04-22T13:25:17.184Z,9.02
2023-04-22T13:28:21.651Z,9.15
2023-04-22T13:31:26.181Z,11.18
2023-04-22T13:34:30.897Z,14.05
2023-04-22T13:37:35.616Z,32.42
2023-04-22T13:40:39.712Z,20.52
2023-04-22T13:43:44.048Z,16.88
2023-04-22T13:46:48.547Z,10.68
2023-04-22T13:49:53.553Z,11.57
2023-04-22T13:52:59.953Z,15.55
2023-04-22T13:56:04.360Z,19.10
2023-04-22T13:59:09.188Z,13.88
2023-04-22T14:02:13.731Z,14.05
2023-04-22T14:05:18.342Z,18.50
2023-04-22T14:08:22.754Z,19.05
2023-04-22T14:11:27.164Z,17.85
2023-04-22T14:14:31.766Z,18.77
2023-04-22T14:17:36.223Z,18.60
2023-04-22T14:20:40.170Z,30.75
2023-04-22T14:23:44.658Z,25.05
2023-04-22T14:26:49.293Z,37.20
2023-04-22T14:29:54.121Z,31.35
2023-04-22T14:32:59.005Z,26.83
2023-04-22T14:36:03.074Z,24.67
2023-04-22T14:39:07.723Z,23.35
2023-04-22T14:42:12.327Z,23.73
2023-04-22T14:45:41.569Z,22.80
2023-04-22T14:48:45.635Z,22.17
2023-04-22T14:51:50.464Z,20.35
2023-04-22T14:54:54.462Z,19.63
2023-04-22T14:57:59.428Z,19.65
2023-04-22T15:01:04.704Z,19.35
2023-04-22T15:04:13.665Z,20.42
2023-04-22T15:07:18.164Z,19.80
2023-04-22T15:10:22.775Z,21.15
2023-04-22T15:13:27.169Z,21.00
2023-04-22T15:16:31.952Z,20.38
2023-04-22T15:19:36.775Z,20.55
2023-04-22T15:22:44.355Z,16.05
2023-04-22T15:25:48.371Z,17.25
2023-04-22T15:28:52.822Z,49.53
2023-04-22T15:31:58.010Z,17.25
2023-04-22T15:35:02.965Z,16.70
2023-04-22T15:38:07.528Z,17.13
2023-04-22T15:41:12.641Z,17.25
2023-04-22T15:44:17.572Z,17.33
2023-04-22T15:47:21.487Z,19.42
2023-04-22T15:50:26.571Z,14.80
2023-04-22T15:53:34.054Z,15.30
2023-04-22T15:56:38.041Z,14.93
2023-04-22T15:59:42.653Z,13.68
2023-04-22T16:02:55.862Z,12.52
2023-04-22T16:06:00.090Z,13.52
2023-04-22T16:09:04.448Z,15.75
2023-04-22T16:12:08.737Z,20.52
2023-04-22T16:15:12.714Z,29.30
2023-04-22T16:18:17.103Z,24.95
2023-04-22T16:21:21.784Z,29.88
2023-04-22T16:24:26.273Z,25.73
2023-04-22T16:27:31.404Z,27.45
2023-04-22T16:30:36.048Z,16.98
2023-04-22T16:33:40.865Z,23.52
2023-04-22T16:36:45.251Z,21.65
2023-04-22T16:39:49.631Z,13.20
2023-04-22T16:42:54.851Z,15.93
2023-04-22T16:45:59.405Z,14.90
2023-04-22T16:49:03.381Z,12.15
2023-04-22T16:52:07.493Z,12.52
2023-04-22T16:55:11.942Z,10.52
2023-04-22T16:58:16.380Z,13.88
2023-04-22T17:01:21.190Z,10.48
2023-04-22T17:04:25.737Z,10.02
2023-04-22T17:07:30.152Z,9.05
2023-04-22T17:10:35.702Z,9.13
2023-04-22T17:13:39.999Z,9.73
2023-04-22T17:16:44.563Z,12.05
2023-04-22T17:19:48.952Z,13.77
2023-04-22T17:22:53.441Z,8.55
2023-04-22T17:25:57.757Z,7.80
2023-04-22T17:29:02.127Z,7.28
2023-04-22T17:32:06.405Z,6.32
2023-04-22T17:35:10.759Z,7.05
2023-04-22T17:38:15.365Z,5.85
2023-04-22T17:41:19.775Z,5.90
2023-04-22T17:44:24.146Z,7.50
2023-04-22T17:47:28.824Z,5.50
2023-04-22T17:50:32.856Z,5.82
2023-04-22T17:53:38.390Z,6.80
2023-04-22T17:56:42.769Z,5.72
2023-04-22T17:59:46.631Z,5.45
2023-04-22T18:02:51.026Z,5.85
2023-04-22T18:05:55.652Z,7.87
2023-04-22T18:08:59.944Z,5.88
2023-04-22T18:12:04.467Z,5.78
2023-04-22T18:15:09.256Z,5.55
2023-04-22T18:18:15.578Z,5.20
2023-04-22T18:21:23.020Z,6.63
2023-04-22T18:24:27.435Z,5.18
2023-04-22T18:27:32.331Z,5.68
2023-04-22T18:30:36.717Z,6.67
2023-04-22T18:33:41.577Z,4.72
2023-04-22T18:36:45.945Z,5.03
2023-04-22T18:39:50.279Z,5.80
2023-04-22T18:42:54.250Z,5.25
2023-04-22T18:45:58.788Z,5.40
2023-04-22T18:49:03.255Z,4.73
2023-04-22T18:52:07.680Z,4.85
2023-04-22T18:55:12.174Z,5.10
2023-04-22T18:58:17.003Z,5.45
2023-04-22T19:01:21.436Z,4.72
2023-04-22T19:04:25.485Z,5.40
2023-04-22T19:07:29.552Z,6.07
2023-04-22T19:10:33.817Z,5.55
2023-04-22T19:13:38.062Z,5.78
2023-04-22T19:16:42.479Z,6.00
2023-04-22T19:19:47.380Z,4.88
2023-04-22T19:22:51.922Z,5.00
2023-04-22T19:25:56.813Z,4.95
2023-04-22T19:29:01.241Z,5.73
2023-04-22T19:32:05.965Z,5.93
2023-04-22T19:35:16.525Z,6.68
2023-04-22T19:38:23.138Z,4.85
2023-04-22T19:41:27.220Z,5.30
2023-04-22T19:44:31.774Z,5.25
2023-04-22T19:47:37.382Z,5.57
2023-04-22T19:50:45.300Z,5.15
2023-04-22T19:53:50.562Z,4.95
2023-04-22T19:56:55.803Z,5.70
2023-04-22T20:00:00.528Z,5.13
2023-04-22T20:03:08.336Z,4.75
2023-04-22T20:06:16.713Z,5.25
2023-04-22T20:09:22.488Z,5.35
2023-04-22T20:15:34.052Z,5.35
2023-04-22T20:18:38.666Z,5.35
2023-04-22T20:21:44.274Z,4.35
2023-04-22T20:24:51.729Z,6.45
2023-04-22T20:27:57.546Z,7.10
2023-04-22T20:34:07.005Z,4.68
2023-04-22T20:37:13.896Z,6.25
2023-04-22T20:40:19.526Z,5.65
2023-04-22T20:43:24.398Z,4.38
2023-04-22T20:46:29.172Z,4.63
2023-04-22T20:49:33.738Z,4.03
2023-04-22T20:52:38.367Z,5.93
2023-04-22T20:55:43.000Z,14.93
2023-04-22T20:58:47.516Z,25.23
2023-04-22T21:01:53.404Z,4.85
2023-04-22T21:04:59.588Z,4.05
2023-04-22T21:08:08.082Z,3.58
2023-04-22T21:11:12.668Z,3.55
2023-04-22T21:14:19.254Z,3.67
2023-04-22T21:17:32.454Z,4.00
2023-04-22T21:20:46.004Z,3.65
2023-04-22T21:23:52.590Z,3.75
2023-04-22T21:26:57.605Z,3.58
2023-04-22T21:30:02.916Z,5.28
2023-04-22T21:33:09.436Z,3.90
2023-04-22T21:36:13.866Z,4.10
2023-04-22T21:39:18.260Z,4.97
2023-04-22T21:42:22.792Z,6.47
2023-04-22T21:45:31.650Z,5.00
2023-04-22T21:48:35.938Z,4.35
2023-04-22T21:51:39.979Z,4.15
2023-04-22T21:54:45.005Z,5.03
2023-04-22T21:57:50.171Z,4.30
2023-04-22T22:00:54.764Z,5.50
2023-04-22T22:03:59.233Z,5.55
2023-04-22T22:07:03.721Z,5.45
2023-04-22T22:10:16.820Z,7.80
2023-04-22T22:13:20.786Z,9.27
2023-04-22T22:16:25.572Z,10.95
2023-04-22T22:19:31.613Z,13.13
2023-04-22T22:25:40.623Z,17.27
2023-04-22T22:28:45.156Z,16.67
2023-04-22T22:31:49.990Z,15.27
2023-04-22T22:34:54.628Z,11.05
2023-04-22T22:37:58.626Z,9.75
2023-04-22T22:41:02.688Z,5.90
2023-04-22T22:44:07.054Z,6.30
2023-04-22T22:47:12.180Z,5.43
2023-04-22T22:50:16.582Z,6.50
2023-04-22T22:53:21.036Z,5.30
2023-04-22T22:56:25.659Z,8.40
2023-04-22T22:59:30.208Z,5.57
2023-04-22T23:02:35.121Z,6.30
2023-04-22T23:05:39.690Z,73.15
2023-04-22T23:08:44.472Z,81.95
2023-04-22T23:11:52.641Z,15.88
2023-04-22T23:14:57.059Z,80.50
2023-04-22T23:18:01.560Z,10.70
2023-04-22T23:21:07.292Z,11.10
2023-04-22T23:24:13.191Z,6.78
2023-04-22T23:27:18.252Z,20.83
2023-04-22T23:30:23.421Z,5.03
2023-04-22T23:33:29.605Z,7.53
2023-04-22T23:36:37.120Z,6.78
2023-04-22T23:39:42.819Z,27.92
2023-04-22T23:42:47.179Z,14.43
2023-04-22T23:45:52.115Z,15.82
2023-04-22T23:48:58.060Z,17.08
2023-04-22T23:52:02.657Z,6.05
2023-04-22T23:55:08.416Z,4.60
2023-04-22T23:58:12.262Z,4.88
